Time;durP1;ratioP1;P1;durP2;ratioP2;P2;SDS_P1;SDS_P2;PMS_P1;PMS_P2;Temp;Humidity;BMP_temperature;BMP_pressure;BME280_temperature;BME280_humidity;BME280_pressure;Samples;Min_cycle;Max_cycle;Signal;HPM_P1;HPM_P2
2023/11/25 00:00:22;;;;;;;4.55;1.38;;;4.00;99.90;;;;;;5072517;28;20510;-44
2023/11/25 00:02:49;;;;;;;3.67;1.20;;;4.00;99.90;;;;;;5066526;28;20028;-44
2023/11/25 00:05:17;;;;;;;4.43;1.27;;;4.00;99.90;;;;;;5069518;28;20016;-44
2023/11/25 00:07:43;;;;;;;6.63;1.08;;;4.00;99.90;;;;;;5069301;28;20047;-44
2023/11/25 00:10:08;;;;;;;4.82;0.88;;;3.90;99.90;;;;;;5066171;28;20028;-44
2023/11/25 00:12:35;;;;;;;2.55;0.95;;;3.90;99.90;;;;;;5072147;28;20614;-44
2023/11/25 00:15:01;;;;;;;5.38;1.13;;;4.00;99.90;;;;;;5064418;28;20040;-43
2023/11/25 00:17:28;;;;;;;3.65;1.02;;;4.00;99.90;;;;;;5074140;28;20032;-43
2023/11/25 00:19:57;;;;;;;3.53;1.00;;;4.00;99.90;;;;;;5064515;28;20484;-43
2023/11/25 00:22:23;;;;;;;4.03;1.23;;;3.90;99.90;;;;;;5074548;28;20020;-44
2023/11/25 00:24:49;;;;;;;5.20;1.52;;;3.90;99.90;;;;;;5064178;28;20043;-44
2023/11/25 00:27:15;;;;;;;3.65;1.27;;;4.00;99.90;;;;;;5075361;28;20070;-44
2023/11/25 00:29:41;;;;;;;8.60;1.27;;;4.00;99.90;;;;;;5062077;28;20025;-43
2023/11/25 00:32:07;;;;;;;2.78;0.90;;;4.00;99.90;;;;;;5075316;28;20033;-43
2023/11/25 00:34:33;;;;;;;7.07;1.40;;;4.00;99.90;;;;;;5063397;28;20396;-44
2023/11/25 00:36:59;;;;;;;5.40;1.20;;;4.00;99.90;;;;;;5074178;28;20032;-44
2023/11/25 00:39:27;;;;;;;4.50;1.63;;;4.00;99.90;;;;;;5063769;28;20021;-44
2023/11/25 00:41:55;;;;;;;3.60;1.02;;;4.00;99.90;;;;;;5071610;28;20118;-44
2023/11/25 00:44:21;;;;;;;3.47;0.90;;;4.00;99.90;;;;;;5064672;28;20043;-43
2023/11/25 00:46:47;;;;;;;8.15;1.58;;;4.00;99.90;;;;;;5070158;28;20066;-44
2023/11/25 00:49:15;;;;;;;7.05;1.45;;;4.00;99.90;;;;;;5067492;28;20457;-43
2023/11/25 00:51:42;;;;;;;7.30;1.42;;;4.00;99.90;;;;;;5072818;28;20044;-44
2023/11/25 00:54:08;;;;;;;5.95;1.98;;;4.10;99.90;;;;;;5082875;28;20035;-44
2023/11/25 00:56:34;;;;;;;7.03;1.48;;;4.10;99.90;;;;;;5082939;28;20028;-44
2023/11/25 00:58:59;;;;;;;6.80;1.63;;;4.10;99.90;;;;;;5082166;28;20528;-43
2023/11/25 01:01:25;;;;;;;4.00;1.23;;;4.10;99.90;;;;;;5082815;28;20032;-44
2023/11/25 01:03:51;;;;;;;6.93;1.70;;;4.10;99.90;;;;;;5082447;28;20024;-45
2023/11/25 01:06:17;;;;;;;2.90;1.15;;;4.20;99.90;;;;;;5080495;28;20452;-45
2023/11/25 01:08:42;;;;;;;5.38;1.30;;;4.20;99.90;;;;;;5082353;28;20020;-44
2023/11/25 01:11:08;;;;;;;6.18;1.20;;;4.20;99.90;;;;;;5082995;28;20257;-45
2023/11/25 01:13:34;;;;;;;4.75;0.93;;;4.30;99.90;;;;;;5082598;28;20036;-45
2023/11/25 01:16:00;;;;;;;8.23;1.58;;;4.30;99.90;;;;;;5081872;28;20068;-44
2023/11/25 01:18:29;;;;;;;4.55;1.58;;;4.30;99.90;;;;;;5082162;28;20727;-42
2023/11/25 01:20:55;;;;;;;6.50;1.67;;;4.30;99.90;;;;;;5082664;28;20036;-44
2023/11/25 01:23:27;;;;;;;5.20;1.40;;;4.30;99.90;;;;;;5082643;28;20055;-43
2023/11/25 01:25:53;;;;;;;4.95;1.10;;;4.30;99.90;;;;;;5081850;28;20096;-43
2023/11/25 01:28:18;;;;;;;3.55;1.20;;;4.30;99.90;;;;;;5082243;28;20028;-43
2023/11/25 01:30:44;;;;;;;6.20;1.60;;;4.20;99.90;;;;;;5082191;28;20111;-43
2023/11/25 01:33:10;;;;;;;7.75;1.20;;;4.20;99.90;;;;;;5081282;28;20118;-43
2023/11/25 01:35:39;;;;;;;4.82;1.67;;;4.20;99.90;;;;;;5082067;28;20117;-43
2023/11/25 01:38:08;;;;;;;7.32;1.35;;;4.20;99.90;;;;;;5081273;28;20047;-43
2023/11/25 01:40:35;;;;;;;6.68;1.60;;;4.20;99.90;;;;;;5081800;28;20012;-44
2023/11/25 01:43:06;;;;;;;5.35;1.63;;;4.20;99.90;;;;;;5081794;28;20058;-44
2023/11/25 01:45:34;;;;;;;4.53;1.20;;;4.20;99.90;;;;;;5082711;28;20669;-44
2023/11/25 01:48:02;;;;;;;5.03;1.17;;;4.20;99.90;;;;;;5080931;28;20573;-43
2023/11/25 01:50:33;;;;;;;3.53;1.30;;;4.20;99.90;;;;;;5082352;28;20101;-43
2023/11/25 01:52:59;;;;;;;3.63;1.00;;;4.20;99.90;;;;;;5081284;28;20120;-43
2023/11/25 01:55:27;;;;;;;6.05;1.40;;;4.20;99.90;;;;;;5080529;28;20458;-44
2023/11/25 01:57:54;;;;;;;5.53;1.60;;;4.20;99.90;;;;;;5081162;28;20531;-43
2023/11/25 02:00:20;;;;;;;11.82;1.63;;;4.20;99.90;;;;;;5081502;28;20024;-43
2023/11/25 02:02:49;;;;;;;6.22;1.45;;;4.20;99.90;;;;;;5080678;28;20024;-43
2023/11/25 02:05:15;;;;;;;4.20;1.10;;;4.30;99.90;;;;;;5081235;28;20040;-43
2023/11/25 02:07:41;;;;;;;4.57;1.38;;;4.30;99.90;;;;;;5080410;28;20494;-43
2023/11/25 02:10:10;;;;;;;4.20;1.35;;;4.30;99.90;;;;;;5080788;28;20039;-43
2023/11/25 02:12:38;;;;;;;12.23;1.90;;;4.30;99.90;;;;;;5061122;28;20028;-43
2023/11/25 02:15:10;;;;;;;7.20;1.58;;;4.30;99.90;;;;;;5074526;28;20043;-43
2023/11/25 02:17:38;;;;;;;5.03;1.13;;;4.30;99.90;;;;;;5081663;28;20120;-43
2023/11/25 02:20:06;;;;;;;2.42;1.20;;;4.40;99.90;;;;;;5080459;28;20463;-43
2023/11/25 02:22:31;;;;;;;3.60;0.90;;;4.40;99.90;;;;;;5081068;28;20038;-43
2023/11/25 02:24:57;;;;;;;4.00;1.15;;;4.40;99.90;;;;;;5080896;28;20024;-44
2023/11/25 02:27:23;;;;;;;5.57;1.30;;;4.50;99.90;;;;;;5080842;28;20115;-44
2023/11/25 02:29:49;;;;;;;6.18;1.45;;;4.50;99.90;;;;;;5080010;28;20028;-44
2023/11/25 02:32:15;;;;;;;8.75;1.67;;;4.50;99.90;;;;;;5080938;28;20031;-44
2023/11/25 02:34:41;;;;;;;12.52;1.85;;;4.60;99.90;;;;;;5080664;28;20030;-44
2023/11/25 02:37:06;;;;;;;8.70;1.70;;;4.60;99.90;;;;;;5080119;28;20070;-44
2023/11/25 02:39:34;;;;;;;8.70;1.92;;;4.60;99.90;;;;;;5080662;28;20020;-45
2023/11/25 02:41:59;;;;;;;10.23;2.00;;;4.60;99.90;;;;;;5080767;28;20081;-44
2023/11/25 02:44:27;;;;;;;9.27;2.00;;;4.70;99.90;;;;;;5080246;28;20046;-44
2023/11/25 02:46:53;;;;;;;8.38;1.65;;;4.70;99.90;;;;;;5081002;28;20024;-44
2023/11/25 02:49:22;;;;;;;7.93;1.73;;;4.70;99.90;;;;;;5084512;28;20031;-44
2023/11/25 02:51:54;;;;;;;8.68;1.75;;;4.70;99.90;;;;;;5081618;28;20113;-43
2023/11/25 02:54:21;;;;;;;7.07;2.67;;;4.70;99.90;;;;;;5065254;28;20466;-43
2023/11/25 02:56:46;;;;;;;3.60;0.90;;;4.70;99.90;;;;;;5077009;28;20484;-43
2023/11/25 02:59:12;;;;;;;8.23;1.45;;;4.70;99.90;;;;;;5063892;28;20032;-43
2023/11/25 03:01:47;;;;;;;5.97;1.30;;;4.70;99.90;;;;;;5075500;28;20044;-43
2023/11/25 03:04:19;;;;;;;3.58;1.02;;;4.60;99.90;;;;;;5064381;28;20021;-44
2023/11/25 03:06:45;;;;;;;3.88;1.00;;;4.60;99.90;;;;;;5073361;28;20387;-43
2023/11/25 03:09:11;;;;;;;6.78;1.38;;;4.50;99.90;;;;;;5066659;28;20051;-43
2023/11/25 03:11:40;;;;;;;7.47;1.77;;;4.50;99.90;;;;;;5072174;28;20026;-43
2023/11/25 03:14:06;;;;;;;4.20;1.60;;;4.40;99.90;;;;;;5068866;28;20025;-43
2023/11/25 03:16:35;;;;;;;3.53;1.23;;;4.40;99.90;;;;;;5070176;28;20036;-44
2023/11/25 03:19:00;;;;;;;5.00;1.20;;;4.30;99.90;;;;;;5070262;28;20021;-43
2023/11/25 03:21:26;;;;;;;4.57;1.55;;;4.30;99.90;;;;;;5067118;28;20473;-44
2023/11/25 03:23:55;;;;;;;5.22;1.30;;;4.30;99.90;;;;;;5073073;28;20020;-43
2023/11/25 03:26:21;;;;;;;7.35;1.45;;;4.20;99.90;;;;;;5064620;28;20054;-44
2023/11/25 03:28:46;;;;;;;3.95;1.17;;;4.20;99.90;;;;;;5075212;28;20024;-44
2023/11/25 03:31:12;;;;;;;7.82;1.25;;;4.20;99.90;;;;;;5064962;28;20530;-44
2023/11/25 03:33:38;;;;;;;4.63;1.30;;;4.20;99.90;;;;;;5075291;28;20779;-43
2023/11/25 03:36:04;;;;;;;5.55;1.38;;;4.20;99.90;;;;;;5063559;28;20452;-43
2023/11/25 03:38:30;;;;;;;6.40;1.20;;;4.10;99.90;;;;;;5076146;28;20012;-44
2023/11/25 03:40:57;;;;;;;5.75;1.10;;;4.10;99.90;;;;;;5063811;28;20528;-43
2023/11/25 03:43:25;;;;;;;6.55;1.67;;;4.10;99.90;;;;;;5076667;28;20016;-44
2023/11/25 03:45:52;;;;;;;6.68;1.33;;;4.10;99.90;;;;;;5063134;28;20116;-44
2023/11/25 03:48:18;;;;;;;3.13;1.13;;;4.10;99.90;;;;;;5075162;28;20028;-44
2023/11/25 03:50:45;;;;;;;5.68;1.30;;;4.10;99.90;;;;;;5067591;28;20617;-43
2023/11/25 03:53:11;;;;;;;5.78;1.20;;;4.10;99.90;;;;;;5083058;28;20414;-43
2023/11/25 03:55:36;;;;;;;6.00;1.52;;;4.10;99.90;;;;;;5084808;28;20078;-43
2023/11/25 03:58:03;;;;;;;8.70;1.70;;;4.10;99.90;;;;;;5083219;28;20104;-43
2023/11/25 04:00:28;;;;;;;4.57;1.33;;;4.10;99.90;;;;;;5082976;28;20066;-44
2023/11/25 04:02:54;;;;;;;5.82;1.30;;;4.10;99.90;;;;;;5083480;28;20111;-43
2023/11/25 04:05:20;;;;;;;6.13;2.00;;;4.00;99.90;;;;;;5084143;28;20055;-42
2023/11/25 04:07:46;;;;;;;7.63;1.60;;;4.00;99.90;;;;;;5083361;28;20052;-43
2023/11/25 04:10:12;;;;;;;5.47;1.65;;;4.10;99.90;;;;;;5072413;28;20491;-42
2023/11/25 04:12:49;;;;;;;6.03;1.17;;;4.10;99.90;;;;;;5084109;28;20047;-43
2023/11/25 04:15:19;;;;;;;6.13;1.20;;;4.10;99.90;;;;;;5083237;28;20048;-43
2023/11/25 04:17:48;;;;;;;6.78;1.25;;;4.10;99.90;;;;;;5083789;28;20440;-43
2023/11/25 04:20:14;;;;;;;7.43;1.40;;;4.10;99.90;;;;;;5083307;28;20082;-43
2023/11/25 04:22:47;;;;;;;6.78;2.33;;;4.20;99.90;;;;;;5083094;28;20020;-43
2023/11/25 04:25:14;;;;;;;9.63;1.83;;;4.20;99.90;;;;;;5083121;28;20051;-43
2023/11/25 04:27:41;;;;;;;5.63;1.73;;;4.30;99.90;;;;;;5084118;28;20031;-44
2023/11/25 04:30:10;;;;;;;7.28;1.77;;;4.40;99.90;;;;;;5082542;28;20400;-43
2023/11/25 04:32:43;;;;;;;7.18;1.98;;;4.40;99.90;;;;;;5083981;28;20654;-43
2023/11/25 04:35:09;;;;;;;;;;;4.50;99.90;;;;;;5083213;28;20735;-43
2023/11/25 04:37:37;;;;;;;7.63;1.45;;;4.60;99.90;;;;;;5083830;28;20375;-43
2023/11/25 04:40:05;;;;;;;6.63;1.67;;;4.60;99.90;;;;;;5082736;28;20020;-43
2023/11/25 04:42:30;;;;;;;7.22;1.67;;;4.60;99.90;;;;;;5083075;28;20024;-43
2023/11/25 04:44:56;;;;;;;4.65;1.48;;;4.60;99.90;;;;;;5082220;28;20085;-43
2023/11/25 04:47:22;;;;;;;4.50;1.08;;;4.70;99.90;;;;;;5083107;28;20444;-43
2023/11/25 04:49:47;;;;;;;8.80;1.50;;;4.80;99.90;;;;;;5082387;28;20036;-44
2023/11/25 04:52:13;;;;;;;8.35;1.88;;;4.80;99.90;;;;;;5082257;28;20160;-44
2023/11/25 04:54:41;;;;;;;6.97;1.60;;;4.90;99.90;;;;;;5082481;28;20020;-44
2023/11/25 04:57:07;;;;;;;6.93;1.65;;;4.90;99.90;;;;;;5081950;28;20031;-44
2023/11/25 04:59:34;;;;;;;6.60;1.80;;;4.90;99.90;;;;;;5082762;28;20051;-43
2023/11/25 05:01:59;;;;;;;9.70;1.70;;;4.90;99.90;;;;;;5082526;28;20036;-43
2023/11/25 05:04:31;;;;;;;2.47;1.02;;;4.90;99.90;;;;;;5082154;28;20035;-44
2023/11/25 05:06:59;;;;;;;6.32;1.70;;;4.90;99.90;;;;;;5082221;28;20115;-44
2023/11/25 05:09:26;;;;;;;7.30;1.40;;;4.90;99.90;;;;;;5081947;28;20035;-43
2023/11/25 05:11:55;;;;;;;6.18;1.60;;;4.90;99.90;;;;;;5081182;28;20099;-43
2023/11/25 05:14:20;;;;;;;4.43;1.00;;;4.90;99.90;;;;;;5081894;28;21009;-43
2023/11/25 05:16:49;;;;;;;3.50;1.20;;;4.90;99.90;;;;;;5081268;28;20040;-44
2023/11/25 05:19:15;;;;;;;5.40;1.40;;;4.80;99.90;;;;;;5082052;28;20024;-44
2023/11/25 05:21:41;;;;;;;6.82;1.30;;;4.80;99.90;;;;;;5081861;28;20838;-43
2023/11/25 05:24:06;;;;;;;3.72;1.30;;;4.70;99.90;;;;;;5081739;28;20061;-43
2023/11/25 05:26:32;;;;;;;7.35;1.27;;;4.70;99.90;;;;;;5081213;28;20483;-43
2023/11/25 05:28:59;;;;;;;5.75;1.20;;;4.60;99.90;;;;;;5081520;28;20028;-43
2023/11/25 05:31:25;;;;;;;5.07;1.15;;;4.60;99.90;;;;;;5082171;28;20024;-43
2023/11/25 05:33:51;;;;;;;2.70;1.02;;;4.50;99.90;;;;;;5081009;28;20043;-43
2023/11/25 05:36:16;;;;;;;3.78;1.60;;;4.50;99.90;;;;;;5082001;28;20567;-43
2023/11/25 05:38:42;;;;;;;3.97;1.17;;;4.40;99.90;;;;;;5081335;28;20026;-43
2023/11/25 05:41:10;;;;;;;4.63;1.08;;;4.40;99.90;;;;;;5082338;28;20024;-43
2023/11/25 05:43:39;;;;;;;4.45;1.20;;;4.30;99.90;;;;;;5082910;28;20170;-43
2023/11/25 05:46:05;;;;;;;4.15;1.23;;;4.30;99.90;;;;;;5081659;28;20035;-43
2023/11/25 05:48:31;;;;;;;3.80;0.90;;;4.20;99.90;;;;;;5081943;28;20032;-43
2023/11/25 05:50:57;;;;;;;4.28;1.42;;;4.20;99.90;;;;;;5079858;28;20453;-43
2023/11/25 05:53:23;;;;;;;3.58;0.90;;;4.20;99.90;;;;;;5069544;28;20510;-43
2023/11/25 05:55:49;;;;;;;2.72;1.23;;;4.30;99.90;;;;;;5080691;28;20154;-44
2023/11/25 05:58:14;;;;;;;1.90;0.80;;;4.30;99.90;;;;;;5069566;28;20043;-43
2023/11/25 06:00:41;;;;;;;3.90;0.90;;;4.30;99.90;;;;;;5081334;28;20032;-43
2023/11/25 06:03:07;;;;;;;3.95;1.02;;;4.30;99.90;;;;;;5068461;28;20035;-43
2023/11/25 06:05:32;;;;;;;4.50;0.88;;;4.30;99.90;;;;;;5080896;28;20036;-43
2023/11/25 06:07:58;;;;;;;5.47;1.40;;;4.20;99.90;;;;;;5068499;28;20070;-44
2023/11/25 06:10:24;;;;;;;2.47;0.88;;;4.20;99.90;;;;;;5080114;28;20024;-43
2023/11/25 06:12:49;;;;;;;2.50;0.80;;;4.30;99.90;;;;;;5072162;28;20062;-44
2023/11/25 06:15:15;;;;;;;2.22;0.80;;;4.20;99.90;;;;;;5077085;28;20050;-44
2023/11/25 06:17:43;;;;;;;2.92;0.60;;;4.20;99.90;;;;;;5074585;28;20117;-43
2023/11/25 06:20:09;;;;;;;3.25;0.60;;;4.30;99.90;;;;;;5075607;28;20040;-44
2023/11/25 06:22:35;;;;;;;2.03;0.63;;;4.20;99.90;;;;;;5075640;28;20024;-44
2023/11/25 06:25:04;;;;;;;2.58;0.80;;;4.20;99.90;;;;;;5072205;28;20050;-44
2023/11/25 06:27:30;;;;;;;3.60;0.95;;;4.30;99.90;;;;;;5079232;28;20020;-44
2023/11/25 06:29:55;;;;;;;2.75;0.70;;;4.40;99.90;;;;;;5069691;28;20153;-44
2023/11/25 06:32:21;;;;;;;4.53;0.90;;;4.40;99.90;;;;;;5079548;28;20097;-43
2023/11/25 06:34:46;;;;;;;3.50;0.68;;;4.40;99.90;;;;;;5069279;28;20050;-44
2023/11/25 06:37:14;;;;;;;1.60;1.15;;;4.40;99.90;;;;;;5080350;28;20060;-44
2023/11/25 06:39:39;;;;;;;3.60;0.60;;;4.40;99.90;;;;;;5067834;28;20081;-44
2023/11/25 06:42:07;;;;;;;2.13;0.50;;;4.40;99.90;;;;;;5080134;28;20032;-44
2023/11/25 06:44:33;;;;;;;3.38;0.60;;;4.30;99.90;;;;;;5068160;28;20131;-44
2023/11/25 06:46:58;;;;;;;2.45;0.65;;;4.30;99.90;;;;;;5080138;28;20123;-44
2023/11/25 06:49:24;;;;;;;4.53;0.80;;;4.40;99.90;;;;;;5067466;28;20119;-45
2023/11/25 06:51:50;;;;;;;3.35;1.08;;;4.40;99.90;;;;;;5079766;28;20131;-45
2023/11/25 06:54:16;;;;;;;2.75;0.73;;;4.40;99.90;;;;;;5071480;28;20025;-44
2023/11/25 06:56:41;;;;;;;4.80;1.00;;;4.50;99.90;;;;;;5076678;28;20032;-44
2023/11/25 06:59:07;;;;;;;2.05;0.70;;;4.60;99.90;;;;;;5074135;28;20038;-44
2023/11/25 07:01:33;;;;;;;4.03;0.75;;;4.60;99.90;;;;;;5069482;28;20161;-44
2023/11/25 07:03:58;;;;;;;4.82;1.05;;;4.70;99.90;;;;;;5063090;28;20617;-44
2023/11/25 07:06:24;;;;;;;3.30;0.80;;;4.70;99.90;;;;;;5068964;28;20048;-44
2023/11/25 07:08:50;;;;;;;2.88;0.68;;;4.70;99.90;;;;;;5061390;28;20511;-44
2023/11/25 07:11:16;;;;;;;7.07;1.30;;;4.80;99.90;;;;;;5068224;28;20555;-44
2023/11/25 07:13:42;;;;;;;3.45;0.98;;;4.80;99.90;;;;;;5060764;28;20408;-43
2023/11/25 07:16:11;;;;;;;3.63;0.75;;;4.80;99.90;;;;;;5070492;28;20076;-43
2023/11/25 07:18:42;;;;;;;2.88;0.60;;;4.80;99.90;;;;;;5059776;28;20029;-43
2023/11/25 07:21:14;;;;;;;2.17;1.05;;;4.80;99.90;;;;;;5071029;28;20028;-43
2023/11/25 07:23:39;;;;;;;4.10;0.70;;;4.80;99.90;;;;;;5059278;28;20031;-43
2023/11/25 07:26:06;;;;;;;2.78;0.90;;;4.90;99.90;;;;;;5071983;28;20028;-45
2023/11/25 07:28:35;;;;;;;2.10;0.75;;;4.90;99.90;;;;;;5060556;28;20024;-45
2023/11/25 07:31:01;;;;;;;2.83;0.60;;;4.90;99.90;;;;;;5071750;28;20055;-44
2023/11/25 07:33:27;;;;;;;3.47;1.02;;;4.90;99.90;;;;;;5060012;28;20028;-45
2023/11/25 07:35:53;;;;;;;3.90;0.77;;;5.00;99.90;;;;;;5072326;28;20034;-44
2023/11/25 07:38:18;;;;;;;3.47;0.70;;;4.90;99.90;;;;;;5063801;28;20028;-44
2023/11/25 07:40:44;;;;;;;1.38;0.60;;;4.90;99.90;;;;;;5071621;28;20020;-44
2023/11/25 07:43:09;;;;;;;4.53;1.38;;;4.90;99.90;;;;;;5066040;28;20062;-44
2023/11/25 07:45:35;;;;;;;3.58;0.80;;;4.90;99.90;;;;;;5068738;28;20016;-44
2023/11/25 07:48:01;;;;;;;3.75;0.80;;;4.90;99.90;;;;;;5068803;28;20032;-45
2023/11/25 07:50:27;;;;;;;2.22;0.75;;;4.90;99.90;;;;;;5066134;28;20024;-44
2023/11/25 07:52:53;;;;;;;5.05;0.90;;;5.00;99.90;;;;;;5071884;28;20052;-44
2023/11/25 07:55:18;;;;;;;3.05;0.70;;;4.90;99.90;;;;;;5063480;28;20648;-44
2023/11/25 07:57:46;;;;;;;5.85;1.10;;;4.90;99.90;;;;;;5074549;28;20048;-44
2023/11/25 08:00:15;;;;;;;2.88;0.85;;;4.90;99.90;;;;;;5064141;28;20059;-44
2023/11/25 08:02:42;;;;;;;2.67;0.73;;;4.90;99.90;;;;;;5074680;28;20024;-44
2023/11/25 08:05:09;;;;;;;3.33;0.63;;;4.90;99.90;;;;;;5062803;28;20046;-44
2023/11/25 08:07:35;;;;;;;4.60;0.90;;;4.90;99.90;;;;;;5074978;28;20035;-43
2023/11/25 08:10:04;;;;;;;2.33;0.57;;;4.90;99.90;;;;;;5061866;28;20462;-43
2023/11/25 08:12:30;;;;;;;3.38;1.08;;;4.90;99.90;;;;;;5075042;28;20024;-45
2023/11/25 08:14:56;;;;;;;1.75;0.70;;;5.00;99.90;;;;;;5061903;28;20503;-43
2023/11/25 08:17:22;;;;;;;3.47;0.75;;;5.00;99.90;;;;;;5074566;28;20038;-43
2023/11/25 08:19:48;;;;;;;1.50;0.50;;;5.00;99.90;;;;;;5062378;28;20028;-44
2023/11/25 08:22:13;;;;;;;1.00;0.70;;;5.10;99.90;;;;;;5071197;28;20127;-43
2023/11/25 08:24:39;;;;;;;2.42;1.05;;;5.20;99.90;;;;;;5065267;28;20036;-45
2023/11/25 08:27:04;;;;;;;3.78;0.90;;;5.20;99.90;;;;;;5069419;28;20024;-43
2023/11/25 08:29:30;;;;;;;4.72;0.75;;;5.20;99.90;;;;;;5067729;28;20036;-44
2023/11/25 08:31:56;;;;;;;2.65;0.70;;;5.20;99.90;;;;;;5066707;28;20105;-44
2023/11/25 08:34:21;;;;;;;2.92;0.60;;;5.20;99.90;;;;;;5071149;28;20468;-46
2023/11/25 08:36:54;;;;;;;1.60;0.60;;;5.20;99.90;;;;;;5072289;28;20090;-43
2023/11/25 08:39:21;;;;;;;;;;;5.20;99.90;;;;;;5073564;28;20118;-43
2023/11/25 08:41:47;;;;;;;2.83;0.50;;;5.20;99.90;;;;;;5081067;28;20180;-43
2023/11/25 08:44:13;;;;;;;1.60;0.57;;;5.20;99.90;;;;;;5071861;28;20527;-44
2023/11/25 08:46:40;;;;;;;2.80;0.80;;;5.20;99.90;;;;;;5081095;28;20024;-43
2023/11/25 08:49:07;;;;;;;1.52;0.40;;;5.30;99.90;;;;;;5069988;28;20027;-43
2023/11/25 08:51:33;;;;;;;1.35;0.60;;;5.30;99.90;;;;;;5073144;28;20067;-43
2023/11/25 08:53:58;;;;;;;0.80;0.52;;;5.40;99.90;;;;;;5081472;28;20024;-44
2023/11/25 08:56:25;;;;;;;1.00;0.63;;;5.40;99.90;;;;;;5082295;28;20089;-44
2023/11/25 08:58:51;;;;;;;2.15;0.77;;;5.50;99.90;;;;;;5081808;28;20128;-43
2023/11/25 09:01:16;;;;;;;3.00;0.80;;;5.50;99.90;;;;;;5082052;28;20111;-43
2023/11/25 09:03:42;;;;;;;2.40;0.50;;;5.60;99.90;;;;;;5081465;28;20534;-44
2023/11/25 09:06:08;;;;;;;1.23;0.65;;;5.70;99.90;;;;;;5082853;28;20519;-44
2023/11/25 09:08:35;;;;;;;0.75;0.50;;;5.70;99.90;;;;;;5082105;28;20019;-45
2023/11/25 09:11:01;;;;;;;4.15;1.20;;;5.70;99.90;;;;;;5080729;28;20067;-45
2023/11/25 09:13:26;;;;;;;1.25;0.50;;;5.80;99.90;;;;;;5082501;28;20024;-45
2023/11/25 09:15:52;;;;;;;1.27;0.50;;;5.80;99.90;;;;;;5081901;28;20483;-44
2023/11/25 09:18:18;;;;;;;2.33;0.60;;;5.80;99.90;;;;;;5081246;28;20031;-48
2023/11/25 09:20:44;;;;;;;4.57;0.75;;;5.90;99.90;;;;;;5082157;28;20032;-44
2023/11/25 09:23:11;;;;;;;4.30;0.85;;;5.90;99.90;;;;;;5082357;28;20051;-43
2023/11/25 09:25:36;;;;;;;3.22;0.70;;;6.10;99.90;;;;;;5081233;28;20061;-43
2023/11/25 09:28:03;;;;;;;2.83;0.80;;;6.20;99.90;;;;;;5081035;28;20028;-43
2023/11/25 09:30:29;;;;;;;2.78;0.60;;;6.30;99.90;;;;;;5081748;28;20024;-44
2023/11/25 09:32:55;;;;;;;3.03;0.70;;;6.30;99.90;;;;;;5080997;28;20396;-43
2023/11/25 09:35:22;;;;;;;1.92;0.60;;;6.40;99.90;;;;;;5081563;28;20111;-47
2023/11/25 09:37:50;;;;;;;3.78;0.60;;;6.40;99.90;;;;;;5080712;28;20117;-44
2023/11/25 09:40:17;;;;;;;2.88;0.60;;;6.40;99.90;;;;;;5081252;28;20035;-43
2023/11/25 09:42:43;;;;;;;3.33;1.05;;;6.40;99.90;;;;;;5081633;28;20449;-44
2023/11/25 09:45:10;;;;;;;3.22;0.63;;;6.40;99.90;;;;;;5080175;28;20517;-49
2023/11/25 09:47:43;;;;;;;2.70;0.60;;;6.40;99.90;;;;;;5081708;28;20028;-44
2023/11/25 09:50:12;;;;;;;2.85;0.77;;;6.30;99.90;;;;;;5080884;28;20047;-44
2023/11/25 09:52:56;;;;;;;2.17;0.77;;;6.30;99.90;;;;;;5063496;28;20049;-44
2023/11/25 09:55:22;;;;;;;2.33;0.70;;;6.30;99.90;;;;;;5070591;28;20081;-45
2023/11/25 09:57:59;;;;;;;2.03;0.55;;;6.20;99.90;;;;;;5063120;28;20547;-45
2023/11/25 10:00:27;;;;;;;1.58;0.52;;;6.20;99.90;;;;;;5069481;28;20754;-43
2023/11/25 10:02:54;;;;;;;2.20;0.60;;;6.20;99.90;;;;;;5063964;28;20032;-43
2023/11/25 10:05:20;;;;;;;3.80;0.60;;;6.20;99.90;;;;;;5067559;28;20115;-43
2023/11/25 10:07:46;;;;;;;2.30;0.55;;;6.20;99.90;;;;;;5065918;28;20833;-44
2023/11/25 10:10:13;;;;;;;3.55;1.20;;;6.30;99.90;;;;;;5064756;28;20036;-43
2023/11/25 10:12:42;;;;;;;2.88;0.70;;;6.30;99.90;;;;;;5069923;28;20032;-44
2023/11/25 10:15:08;;;;;;;2.40;0.70;;;6.40;99.90;;;;;;5062144;28;20028;-45
2023/11/25 10:17:34;;;;;;;4.45;1.02;;;6.60;99.90;;;;;;5071356;28;20028;-44
2023/11/25 10:20:13;;;;;;;2.35;0.68;;;6.70;99.90;;;;;;5061924;28;20024;-44
2023/11/25 10:22:57;;;;;;;3.40;0.90;;;6.80;99.90;;;;;;5059458;28;20024;-45
2023/11/25 10:25:23;;;;;;;4.93;1.20;;;6.90;99.90;;;;;;5078091;28;20123;-44
2023/11/25 10:27:51;;;;;;;3.28;1.05;;;6.90;99.90;;;;;;5057042;28;20024;-46
2023/11/25 10:30:16;;;;;;;5.63;1.08;;;6.80;99.90;;;;;;5079574;28;20035;-44
2023/11/25 10:32:42;;;;;;;3.47;1.23;;;6.80;99.90;;;;;;5069338;28;20085;-44
2023/11/25 10:35:09;;;;;;;5.70;0.90;;;6.70;99.90;;;;;;5079984;28;20024;-45
2023/11/25 10:37:42;;;;;;;3.85;1.40;;;6.70;99.90;;;;;;5067067;28;20097;-44
2023/11/25 10:40:09;;;;;;;;;;;6.70;99.90;;;;;;5080979;28;20414;-44
2023/11/25 10:42:36;;;;;;;7.80;1.48;;;6.70;99.90;;;;;;5067417;28;20295;-45
2023/11/25 10:45:04;;;;;;;6.93;1.20;;;6.80;99.90;;;;;;5063302;28;20024;-45
2023/11/25 10:47:36;;;;;;;6.43;1.42;;;6.80;99.90;;;;;;5072689;28;20801;-45
2023/11/25 10:50:03;;;;;;;4.75;1.02;;;6.90;99.90;;;;;;5060281;28;20274;-45
2023/11/25 10:52:32;;;;;;;6.78;2.08;;;7.00;99.90;;;;;;5078281;28;20195;-45
2023/11/25 10:54:58;;;;;;;7.50;1.48;;;7.00;99.90;;;;;;5080607;28;20030;-44
2023/11/25 10:57:26;;;;;;;6.55;1.90;;;7.20;99.90;;;;;;5079834;28;20020;-44
2023/11/25 10:59:56;;;;;;;6.57;1.50;;;7.40;99.90;;;;;;5080051;28;20024;-44
2023/11/25 11:02:29;;;;;;;8.88;2.63;;;7.60;99.90;;;;;;5080688;28;20061;-44
2023/11/25 11:05:01;;;;;;;7.47;1.58;;;7.70;99.90;;;;;;5081663;28;20122;-44
2023/11/25 11:07:27;;;;;;;14.60;3.15;;;7.70;99.90;;;;;;5081175;28;20023;-45
2023/11/25 11:09:58;;;;;;;6.85;1.70;;;7.60;99.90;;;;;;5082524;28;20020;-44
2023/11/25 11:12:33;;;;;;;9.25;1.45;;;7.60;99.90;;;;;;5084710;28;20023;-45
2023/11/25 11:15:06;;;;;;;6.13;1.13;;;7.50;99.90;;;;;;5084916;28;20362;-45
2023/11/25 11:17:41;;;;;;;2.88;1.08;;;7.50;99.90;;;;;;5084076;28;20026;-44
2023/11/25 11:20:12;;;;;;;8.07;2.05;;;7.50;99.90;;;;;;5084510;28;20050;-45
2023/11/25 11:22:40;;;;;;;6.95;1.73;;;7.50;99.90;;;;;;5084593;28;20565;-47
2023/11/25 11:25:32;;;;;;;8.10;1.35;;;7.50;99.90;;;;;;5084325;28;20028;-45
2023/11/25 11:28:25;;;;;;;3.85;1.13;;;7.60;99.90;;;;;;5084642;28;20032;-45
2023/11/25 11:31:06;;;;;;;5.45;1.30;;;7.60;99.90;;;;;;5083482;28;20024;-43
2023/11/25 11:33:35;;;;;;;6.88;1.20;;;7.60;99.90;;;;;;5084502;28;20024;-45
2023/11/25 11:36:05;;;;;;;8.90;1.63;;;7.60;99.90;;;;;;5083643;28;20132;-44
2023/11/25 11:38:32;;;;;;;5.45;1.25;;;7.60;99.90;;;;;;5083635;28;20483;-46
2023/11/25 11:41:21;;;;;;;4.18;1.20;;;7.70;99.90;;;;;;5084552;28;20024;-45
2023/11/25 11:44:04;;;;;;;6.55;1.20;;;7.70;99.90;;;;;;5065659;28;20769;-44
2023/11/25 11:46:38;;;;;;;6.90;1.23;;;7.70;99.90;;;;;;5083555;28;20490;-47
2023/11/25 11:49:07;;;;;;;6.47;1.50;;;7.60;99.90;;;;;;5083456;28;20206;-45
2023/11/25 11:51:33;;;;;;;4.68;1.45;;;7.60;99.90;;;;;;5083629;28;20114;-45
2023/11/25 11:54:20;;;;;;;3.17;0.95;;;7.70;99.90;;;;;;5083691;28;20016;-44
2023/11/25 11:57:08;;;;;;;5.45;1.45;;;7.70;99.90;;;;;;5083599;28;20094;-44
2023/11/25 12:00:00;;;;;;;6.70;1.45;;;7.80;99.90;;;;;;5082616;28;20070;-45
2023/11/25 12:02:32;;;;;;;3.97;1.33;;;8.00;99.90;;;;;;5064422;28;20028;-45
2023/11/25 12:04:58;;;;;;;9.02;1.60;;;8.10;99.90;;;;;;5079604;28;20368;-44
2023/11/25 12:07:26;;;;;;;3.80;1.30;;;8.20;99.90;;;;;;5082967;28;20476;-44
2023/11/25 12:09:53;;;;;;;7.35;2.20;;;8.40;99.90;;;;;;5083169;28;20480;-44
2023/11/25 12:12:19;;;;;;;4.85;1.52;;;8.50;99.90;;;;;;5083571;28;20032;-44
2023/11/25 12:14:46;;;;;;;7.80;1.75;;;8.60;99.90;;;;;;5082614;28;20428;-44
2023/11/25 12:17:15;;;;;;;5.25;1.20;;;8.60;99.90;;;;;;5083807;28;20036;-44
2023/11/25 12:19:44;;;;;;;5.57;1.42;;;8.70;99.90;;;;;;5082450;28;20024;-43
2023/11/25 12:22:11;;;;;;;7.00;1.42;;;8.80;99.90;;;;;;5082707;28;20081;-44
2023/11/25 12:24:41;;;;;;;6.30;1.40;;;8.80;99.90;;;;;;5082924;28;20464;-44
2023/11/25 12:27:09;;;;;;;5.72;1.30;;;8.80;99.90;;;;;;5082287;28;20373;-43
2023/11/25 12:29:35;;;;;;;10.60;1.80;;;8.90;99.90;;;;;;5082545;28;20604;-44
2023/11/25 12:32:01;;;;;;;9.45;1.60;;;8.90;99.90;;;;;;5082530;28;20114;-45
2023/11/25 12:34:30;;;;;;;7.13;1.83;;;8.90;99.90;;;;;;5082489;28;20611;-45
2023/11/25 12:36:57;;;;;;;6.47;1.70;;;8.90;99.90;;;;;;5082390;28;20734;-44
2023/11/25 12:39:22;;;;;;;9.02;2.22;;;8.90;99.90;;;;;;5083430;28;20547;-44
2023/11/25 12:41:49;;;;;;;5.40;1.50;;;8.90;99.90;;;;;;5081600;28;20031;-44
2023/11/25 12:44:16;;;;;;;8.38;1.30;;;8.80;99.90;;;;;;5083234;28;20059;-45
2023/11/25 12:46:58;;;;;;;7.97;1.80;;;8.90;99.90;;;;;;5083053;28;20039;-44
2023/11/25 12:49:24;;;;;;;6.53;1.30;;;8.90;99.90;;;;;;5082239;28;20078;-45
2023/11/25 12:51:51;;;;;;;9.82;1.67;;;9.00;99.90;;;;;;5080558;28;20048;-44
2023/11/25 12:54:17;;;;;;;9.15;1.75;;;8.90;99.90;;;;;;5064164;28;20043;-43
2023/11/25 12:56:57;;;;;;;6.40;1.77;;;8.80;99.90;;;;;;5074442;28;20071;-44
2023/11/25 12:59:26;;;;;;;7.47;1.85;;;8.50;99.90;;;;;;5042718;28;20543;-46